sensor_id;sensor_type;location;lat;lon;timestamp;P1;durP1;ratioP1;P2;durP2;ratioP2
46505;SDS011;32220;49.808;9.968;2023-03-03T00:00:58;16.50;;;9.97;;
46505;SDS011;32220;49.808;9.968;2023-03-03T00:03:26;17.37;;;10.43;;
46505;SDS011;32220;49.808;9.968;2023-03-03T00:05:54;15.13;;;9.53;;
46505;SDS011;32220;49.808;9.968;2023-03-03T00:08:22;13.53;;;9.37;;
46505;SDS011;32220;49.808;9.968;2023-03-03T00:10:50;17.80;;;10.60;;
46505;SDS011;32220;49.808;9.968;2023-03-03T00:13:20;14.83;;;9.40;;
46505;SDS011;32220;49.808;9.968;2023-03-03T00:15:50;12.33;;;8.50;;
46505;SDS011;32220;49.808;9.968;2023-03-03T00:18:21;16.13;;;10.37;;
46505;SDS011;32220;49.808;9.968;2023-03-03T00:20:55;16.10;;;10.23;;
46505;SDS011;32220;49.808;9.968;2023-03-03T00:23:28;16.77;;;9.30;;
46505;SDS011;32220;49.808;9.968;2023-03-03T00:25:57;17.60;;;9.77;;
46505;SDS011;32220;49.808;9.968;2023-03-03T00:28:27;14.23;;;9.67;;
46505;SDS011;32220;49.808;9.968;2023-03-03T00:30:56;16.77;;;11.10;;
46505;SDS011;32220;49.808;9.968;2023-03-03T00:33:28;15.60;;;11.10;;
46505;SDS011;32220;49.808;9.968;2023-03-03T00:38:52;16.57;;;11.33;;
46505;SDS011;32220;49.808;9.968;2023-03-03T00:41:21;16.00;;;10.50;;
46505;SDS011;32220;49.808;9.968;2023-03-03T00:43:50;17.33;;;11.20;;
46505;SDS011;32220;49.808;9.968;2023-03-03T00:46:19;16.50;;;10.40;;
46505;SDS011;32220;49.808;9.968;2023-03-03T00:48:49;16.67;;;11.07;;
46505;SDS011;32220;49.808;9.968;2023-03-03T00:51:20;18.30;;;11.70;;
46505;SDS011;32220;49.808;9.968;2023-03-03T00:53:54;20.53;;;12.80;;
46505;SDS011;32220;49.808;9.968;2023-03-03T00:56:22;18.17;;;11.33;;
46505;SDS011;32220;49.808;9.968;2023-03-03T00:58:50;19.57;;;11.93;;
46505;SDS011;32220;49.808;9.968;2023-03-03T01:01:20;16.93;;;11.10;;
46505;SDS011;32220;49.808;9.968;2023-03-03T01:03:53;19.47;;;11.60;;
46505;SDS011;32220;49.808;9.968;2023-03-03T01:06:21;17.73;;;11.43;;
46505;SDS011;32220;49.808;9.968;2023-03-03T01:08:49;18.80;;;11.17;;
46505;SDS011;32220;49.808;9.968;2023-03-03T01:11:18;16.40;;;11.20;;
46505;SDS011;32220;49.808;9.968;2023-03-03T01:13:49;15.87;;;10.53;;
46505;SDS011;32220;49.808;9.968;2023-03-03T01:16:18;15.47;;;11.00;;
46505;SDS011;32220;49.808;9.968;2023-03-03T01:18:46;19.33;;;12.37;;
46505;SDS011;32220;49.808;9.968;2023-03-03T01:21:15;17.37;;;10.97;;
46505;SDS011;32220;49.808;9.968;2023-03-03T01:23:43;15.00;;;10.83;;
46505;SDS011;32220;49.808;9.968;2023-03-03T01:26:11;15.27;;;10.73;;
46505;SDS011;32220;49.808;9.968;2023-03-03T01:28:38;18.40;;;12.07;;
46505;SDS011;32220;49.808;9.968;2023-03-03T01:31:06;18.50;;;12.70;;
46505;SDS011;32220;49.808;9.968;2023-03-03T01:33:34;16.83;;;11.53;;
46505;SDS011;32220;49.808;9.968;2023-03-03T01:36:02;20.80;;;12.63;;
46505;SDS011;32220;49.808;9.968;2023-03-03T01:38:32;18.73;;;12.13;;
46505;SDS011;32220;49.808;9.968;2023-03-03T01:41:02;23.03;;;12.43;;
46505;SDS011;32220;49.808;9.968;2023-03-03T01:43:30;18.33;;;11.70;;
46505;SDS011;32220;49.808;9.968;2023-03-03T01:46:21;20.23;;;12.37;;
46505;SDS011;32220;49.808;9.968;2023-03-03T01:49:10;19.30;;;13.20;;
46505;SDS011;32220;49.808;9.968;2023-03-03T01:51:44;19.00;;;12.60;;
46505;SDS011;32220;49.808;9.968;2023-03-03T01:54:17;20.97;;;11.90;;
46505;SDS011;32220;49.808;9.968;2023-03-03T01:56:50;19.13;;;11.50;;
46505;SDS011;32220;49.808;9.968;2023-03-03T01:59:23;21.07;;;12.20;;
46505;SDS011;32220;49.808;9.968;2023-03-03T02:01:53;19.40;;;11.33;;
46505;SDS011;32220;49.808;9.968;2023-03-03T02:04:21;21.97;;;13.37;;
46505;SDS011;32220;49.808;9.968;2023-03-03T02:06:53;23.77;;;14.13;;
46505;SDS011;32220;49.808;9.968;2023-03-03T02:09:28;22.00;;;14.97;;
46505;SDS011;32220;49.808;9.968;2023-03-03T02:12:04;22.47;;;13.93;;
46505;SDS011;32220;49.808;9.968;2023-03-03T02:14:35;19.27;;;12.27;;
46505;SDS011;32220;49.808;9.968;2023-03-03T02:17:02;19.13;;;12.77;;
46505;SDS011;32220;49.808;9.968;2023-03-03T02:19:33;17.10;;;11.37;;
46505;SDS011;32220;49.808;9.968;2023-03-03T02:22:09;17.77;;;11.70;;
46505;SDS011;32220;49.808;9.968;2023-03-03T02:24:41;17.97;;;11.77;;
46505;SDS011;32220;49.808;9.968;2023-03-03T02:27:13;17.57;;;11.63;;
46505;SDS011;32220;49.808;9.968;2023-03-03T02:29:42;16.57;;;10.30;;
46505;SDS011;32220;49.808;9.968;2023-03-03T02:32:10;20.80;;;11.73;;
46505;SDS011;32220;49.808;9.968;2023-03-03T02:34:47;16.47;;;10.03;;
46505;SDS011;32220;49.808;9.968;2023-03-03T02:37:17;16.73;;;10.40;;
46505;SDS011;32220;49.808;9.968;2023-03-03T02:39:46;14.97;;;10.70;;
46505;SDS011;32220;49.808;9.968;2023-03-03T02:42:17;19.27;;;12.03;;
46505;SDS011;32220;49.808;9.968;2023-03-03T02:44:52;17.80;;;11.53;;
46505;SDS011;32220;49.808;9.968;2023-03-03T02:47:20;16.50;;;10.73;;
46505;SDS011;32220;49.808;9.968;2023-03-03T02:49:48;20.43;;;12.17;;
46505;SDS011;32220;49.808;9.968;2023-03-03T02:52:17;19.13;;;12.27;;
46505;SDS011;32220;49.808;9.968;2023-03-03T02:54:46;26.47;;;14.77;;
46505;SDS011;32220;49.808;9.968;2023-03-03T02:57:14;18.60;;;12.60;;
46505;SDS011;32220;49.808;9.968;2023-03-03T02:59:43;16.70;;;11.10;;
46505;SDS011;32220;49.808;9.968;2023-03-03T03:02:13;26.23;;;15.43;;
46505;SDS011;32220;49.808;9.968;2023-03-03T03:04:41;19.47;;;11.33;;
46505;SDS011;32220;49.808;9.968;2023-03-03T03:07:11;19.93;;;11.87;;
46505;SDS011;32220;49.808;9.968;2023-03-03T03:09:39;25.73;;;15.37;;
46505;SDS011;32220;49.808;9.968;2023-03-03T03:12:07;21.00;;;12.80;;
46505;SDS011;32220;49.808;9.968;2023-03-03T03:14:35;23.53;;;15.07;;
46505;SDS011;32220;49.808;9.968;2023-03-03T03:17:06;26.43;;;14.77;;
46505;SDS011;32220;49.808;9.968;2023-03-03T03:19:34;21.77;;;13.57;;
46505;SDS011;32220;49.808;9.968;2023-03-03T03:22:02;20.63;;;12.87;;
46505;SDS011;32220;49.808;9.968;2023-03-03T03:24:33;24.87;;;14.00;;
46505;SDS011;32220;49.808;9.968;2023-03-03T03:27:04;21.43;;;14.00;;
46505;SDS011;32220;49.808;9.968;2023-03-03T03:29:32;23.80;;;12.93;;
46505;SDS011;32220;49.808;9.968;2023-03-03T03:32:00;17.10;;;11.40;;
46505;SDS011;32220;49.808;9.968;2023-03-03T03:34:29;19.60;;;11.37;;
46505;SDS011;32220;49.808;9.968;2023-03-03T03:36:57;16.10;;;10.93;;
46505;SDS011;32220;49.808;9.968;2023-03-03T03:39:27;22.40;;;12.77;;
46505;SDS011;32220;49.808;9.968;2023-03-03T03:41:55;20.93;;;12.90;;
46505;SDS011;32220;49.808;9.968;2023-03-03T03:44:23;20.80;;;13.10;;
46505;SDS011;32220;49.808;9.968;2023-03-03T03:46:51;21.17;;;13.27;;
46505;SDS011;32220;49.808;9.968;2023-03-03T03:49:19;22.00;;;13.07;;
46505;SDS011;32220;49.808;9.968;2023-03-03T03:51:50;21.33;;;12.47;;
46505;SDS011;32220;49.808;9.968;2023-03-03T03:54:22;19.90;;;12.10;;
46505;SDS011;32220;49.808;9.968;2023-03-03T03:56:50;18.33;;;12.17;;
46505;SDS011;32220;49.808;9.968;2023-03-03T03:59:20;24.07;;;12.70;;
46505;SDS011;32220;49.808;9.968;2023-03-03T04:01:48;20.70;;;12.10;;
46505;SDS011;32220;49.808;9.968;2023-03-03T04:04:17;18.90;;;11.30;;
46505;SDS011;32220;49.808;9.968;2023-03-03T04:06:44;19.20;;;11.00;;
46505;SDS011;32220;49.808;9.968;2023-03-03T04:09:14;24.27;;;13.77;;
46505;SDS011;32220;49.808;9.968;2023-03-03T04:11:43;18.63;;;11.93;;
46505;SDS011;32220;49.808;9.968;2023-03-03T04:14:12;19.03;;;10.93;;
46505;SDS011;32220;49.808;9.968;2023-03-03T04:16:40;18.07;;;11.37;;
46505;SDS011;32220;49.808;9.968;2023-03-03T04:19:08;17.80;;;11.93;;
46505;SDS011;32220;49.808;9.968;2023-03-03T04:21:38;18.30;;;11.57;;
46505;SDS011;32220;49.808;9.968;2023-03-03T04:24:06;24.73;;;14.13;;
46505;SDS011;32220;49.808;9.968;2023-03-03T04:26:36;27.13;;;15.27;;
46505;SDS011;32220;49.808;9.968;2023-03-03T04:29:04;34.80;;;18.33;;
46505;SDS011;32220;49.808;9.968;2023-03-03T04:31:32;28.53;;;14.60;;
46505;SDS011;32220;49.808;9.968;2023-03-03T04:34:02;28.53;;;15.40;;
46505;SDS011;32220;49.808;9.968;2023-03-03T04:36:30;26.30;;;14.57;;
46505;SDS011;32220;49.808;9.968;2023-03-03T04:38:58;32.53;;;16.80;;
46505;SDS011;32220;49.808;9.968;2023-03-03T04:41:26;32.53;;;16.30;;
46505;SDS011;32220;49.808;9.968;2023-03-03T04:43:56;24.50;;;14.70;;
46505;SDS011;32220;49.808;9.968;2023-03-03T04:46:23;24.07;;;13.77;;
46505;SDS011;32220;49.808;9.968;2023-03-03T04:48:51;24.73;;;13.70;;
46505;SDS011;32220;49.808;9.968;2023-03-03T04:51:20;25.27;;;14.67;;
46505;SDS011;32220;49.808;9.968;2023-03-03T04:53:48;21.37;;;12.77;;
46505;SDS011;32220;49.808;9.968;2023-03-03T04:56:16;20.80;;;12.33;;
46505;SDS011;32220;49.808;9.968;2023-03-03T04:58:44;21.77;;;11.60;;
46505;SDS011;32220;49.808;9.968;2023-03-03T05:01:13;24.53;;;12.50;;
46505;SDS011;32220;49.808;9.968;2023-03-03T05:03:41;22.27;;;12.80;;
46505;SDS011;32220;49.808;9.968;2023-03-03T05:06:09;26.40;;;15.27;;
46505;SDS011;32220;49.808;9.968;2023-03-03T05:08:37;24.50;;;14.63;;
46505;SDS011;32220;49.808;9.968;2023-03-03T05:11:08;31.17;;;16.90;;
46505;SDS011;32220;49.808;9.968;2023-03-03T05:13:35;33.63;;;19.33;;
46505;SDS011;32220;49.808;9.968;2023-03-03T05:16:03;26.80;;;14.47;;
46505;SDS011;32220;49.808;9.968;2023-03-03T05:18:33;25.93;;;14.70;;
46505;SDS011;32220;49.808;9.968;2023-03-03T05:21:01;32.17;;;16.43;;
46505;SDS011;32220;49.808;9.968;2023-03-03T05:23:29;28.03;;;16.90;;
46505;SDS011;32220;49.808;9.968;2023-03-03T05:25:57;30.87;;;16.73;;
46505;SDS011;32220;49.808;9.968;2023-03-03T05:28:24;31.53;;;17.47;;
46505;SDS011;32220;49.808;9.968;2023-03-03T05:30:52;27.97;;;15.37;;
46505;SDS011;32220;49.808;9.968;2023-03-03T05:33:20;23.50;;;14.00;;
46505;SDS011;32220;49.808;9.968;2023-03-03T05:35:51;28.37;;;15.60;;
46505;SDS011;32220;49.808;9.968;2023-03-03T05:38:20;21.90;;;13.47;;
46505;SDS011;32220;49.808;9.968;2023-03-03T05:40:49;23.33;;;14.60;;
46505;SDS011;32220;49.808;9.968;2023-03-03T05:43:17;23.10;;;13.63;;
46505;SDS011;32220;49.808;9.968;2023-03-03T05:45:44;23.67;;;13.43;;
46505;SDS011;32220;49.808;9.968;2023-03-03T05:48:12;20.23;;;12.20;;
46505;SDS011;32220;49.808;9.968;2023-03-03T05:50:40;23.63;;;13.10;;
46505;SDS011;32220;49.808;9.968;2023-03-03T05:53:09;24.13;;;14.13;;
46505;SDS011;32220;49.808;9.968;2023-03-03T05:55:37;22.53;;;14.13;;
46505;SDS011;32220;49.808;9.968;2023-03-03T05:58:04;24.10;;;14.50;;
46505;SDS011;32220;49.808;9.968;2023-03-03T06:00:32;26.00;;;13.10;;
46505;SDS011;32220;49.808;9.968;2023-03-03T06:03:00;26.47;;;15.67;;
46505;SDS011;32220;49.808;9.968;2023-03-03T06:05:27;22.87;;;13.80;;
46505;SDS011;32220;49.808;9.968;2023-03-03T06:07:55;28.87;;;15.17;;
46505;SDS011;32220;49.808;9.968;2023-03-03T06:10:24;25.67;;;14.33;;
46505;SDS011;32220;49.808;9.968;2023-03-03T06:12:55;20.67;;;12.27;;
46505;SDS011;32220;49.808;9.968;2023-03-03T06:15:24;29.60;;;15.80;;
46505;SDS011;32220;49.808;9.968;2023-03-03T06:17:51;23.07;;;13.73;;
46505;SDS011;32220;49.808;9.968;2023-03-03T06:20:19;28.40;;;15.30;;
46505;SDS011;32220;49.808;9.968;2023-03-03T06:22:47;25.43;;;14.90;;
46505;SDS011;32220;49.808;9.968;2023-03-03T06:25:15;25.10;;;15.03;;
46505;SDS011;32220;49.808;9.968;2023-03-03T06:27:44;20.47;;;12.30;;
46505;SDS011;32220;49.808;9.968;2023-03-03T06:30:12;26.63;;;14.87;;
46505;SDS011;32220;49.808;9.968;2023-03-03T06:32:40;24.67;;;14.63;;
46505;SDS011;32220;49.808;9.968;2023-03-03T06:35:08;23.33;;;13.37;;
46505;SDS011;32220;49.808;9.968;2023-03-03T06:37:36;22.33;;;12.73;;
46505;SDS011;32220;49.808;9.968;2023-03-03T06:40:04;19.77;;;12.13;;
46505;SDS011;32220;49.808;9.968;2023-03-03T06:42:35;18.47;;;12.17;;
46505;SDS011;32220;49.808;9.968;2023-03-03T06:45:05;21.73;;;12.47;;
46505;SDS011;32220;49.808;9.968;2023-03-03T06:47:34;22.57;;;14.03;;
46505;SDS011;32220;49.808;9.968;2023-03-03T06:50:01;24.97;;;13.70;;
46505;SDS011;32220;49.808;9.968;2023-03-03T06:52:29;25.07;;;13.43;;
46505;SDS011;32220;49.808;9.968;2023-03-03T06:54:58;24.63;;;13.93;;
46505;SDS011;32220;49.808;9.968;2023-03-03T06:57:29;23.40;;;13.67;;
46505;SDS011;32220;49.808;9.968;2023-03-03T06:59:59;23.33;;;13.43;;
46505;SDS011;32220;49.808;9.968;2023-03-03T07:02:40;23.23;;;13.53;;
46505;SDS011;32220;49.808;9.968;2023-03-03T07:05:10;23.43;;;13.20;;
46505;SDS011;32220;49.808;9.968;2023-03-03T07:07:40;24.50;;;13.70;;
46505;SDS011;32220;49.808;9.968;2023-03-03T07:10:12;24.30;;;14.80;;
46505;SDS011;32220;49.808;9.968;2023-03-03T07:12:46;26.60;;;14.87;;
46505;SDS011;32220;49.808;9.968;2023-03-03T07:15:14;23.03;;;14.20;;
46505;SDS011;32220;49.808;9.968;2023-03-03T07:17:45;22.73;;;15.10;;
46505;SDS011;32220;49.808;9.968;2023-03-03T07:20:17;26.83;;;16.27;;
46505;SDS011;32220;49.808;9.968;2023-03-03T07:22:47;25.30;;;17.73;;
46505;SDS011;32220;49.808;9.968;2023-03-03T07:25:18;29.43;;;18.40;;
46505;SDS011;32220;49.808;9.968;2023-03-03T07:27:51;26.50;;;18.77;;
46505;SDS011;32220;49.808;9.968;2023-03-03T07:30:23;24.97;;;18.23;;
46505;SDS011;32220;49.808;9.968;2023-03-03T07:32:55;26.43;;;18.23;;
46505;SDS011;32220;49.808;9.968;2023-03-03T07:38:19;25.20;;;16.37;;
46505;SDS011;32220;49.808;9.968;2023-03-03T07:40:53;26.40;;;18.23;;
46505;SDS011;32220;49.808;9.968;2023-03-03T07:43:28;31.37;;;20.43;;
46505;SDS011;32220;49.808;9.968;2023-03-03T07:46:01;28.30;;;18.30;;
46505;SDS011;32220;49.808;9.968;2023-03-03T07:48:43;30.30;;;19.57;;
46505;SDS011;32220;49.808;9.968;2023-03-03T07:51:12;29.23;;;19.33;;
46505;SDS011;32220;49.808;9.968;2023-03-03T07:53:47;29.67;;;19.53;;
46505;SDS011;32220;49.808;9.968;2023-03-03T07:56:16;32.07;;;20.33;;
46505;SDS011;32220;49.808;9.968;2023-03-03T07:58:56;31.93;;;20.97;;
46505;SDS011;32220;49.808;9.968;2023-03-03T08:01:30;27.30;;;18.60;;
46505;SDS011;32220;49.808;9.968;2023-03-03T08:04:14;26.97;;;18.83;;
46505;SDS011;32220;49.808;9.968;2023-03-03T08:06:45;29.30;;;18.67;;
46505;SDS011;32220;49.808;9.968;2023-03-03T08:15:15;29.33;;;18.83;;
46505;SDS011;32220;49.808;9.968;2023-03-03T08:17:45;27.47;;;19.07;;
46505;SDS011;32220;49.808;9.968;2023-03-03T08:23:20;26.03;;;18.10;;
46505;SDS011;32220;49.808;9.968;2023-03-03T08:25:48;30.70;;;19.67;;
46505;SDS011;32220;49.808;9.968;2023-03-03T08:28:17;25.63;;;18.77;;
46505;SDS011;32220;49.808;9.968;2023-03-03T08:30:44;26.13;;;19.27;;
46505;SDS011;32220;49.808;9.968;2023-03-03T08:33:13;23.70;;;18.80;;
46505;SDS011;32220;49.808;9.968;2023-03-03T08:35:41;25.63;;;19.63;;
46505;SDS011;32220;49.808;9.968;2023-03-03T08:38:09;21.43;;;18.43;;
46505;SDS011;32220;49.808;9.968;2023-03-03T08:40:39;22.90;;;19.13;;
46505;SDS011;32220;49.808;9.968;2023-03-03T08:43:08;23.90;;;19.43;;
46505;SDS011;32220;49.808;9.968;2023-03-03T08:45:35;23.80;;;18.97;;
46505;SDS011;32220;49.808;9.968;2023-03-03T08:48:03;23.13;;;18.87;;
46505;SDS011;32220;49.808;9.968;2023-03-03T08:50:31;23.37;;;19.87;;
46505;SDS011;32220;49.808;9.968;2023-03-03T08:52:59;22.50;;;18.23;;
46505;SDS011;32220;49.808;9.968;2023-03-03T08:55:27;21.13;;;18.73;;
46505;SDS011;32220;49.808;9.968;2023-03-03T08:57:56;22.83;;;20.10;;
46505;SDS011;32220;49.808;9.968;2023-03-03T09:00:24;21.57;;;19.27;;
46505;SDS011;32220;49.808;9.968;2023-03-03T09:02:52;20.97;;;18.77;;
46505;SDS011;32220;49.808;9.968;2023-03-03T09:05:20;21.33;;;19.07;;
46505;SDS011;32220;49.808;9.968;2023-03-03T09:07:49;21.70;;;19.40;;
46505;SDS011;32220;49.808;9.968;2023-03-03T09:10:19;21.67;;;19.27;;
46505;SDS011;32220;49.808;9.968;2023-03-03T09:12:54;21.00;;;18.83;;
46505;SDS011;32220;49.808;9.968;2023-03-03T09:15:26;19.50;;;17.50;;
46505;SDS011;32220;49.808;9.968;2023-03-03T09:17:57;20.67;;;18.40;;
46505;SDS011;32220;49.808;9.968;2023-03-03T09:20:33;19.60;;;17.60;;
46505;SDS011;32220;49.808;9.968;2023-03-03T09:28:57;22.17;;;19.87;;
46505;SDS011;32220;49.808;9.968;2023-03-03T09:31:44;22.47;;;20.10;;
46505;SDS011;32220;49.808;9.968;2023-03-03T09:34:15;18.27;;;16.50;;
46505;SDS011;32220;49.808;9.968;2023-03-03T09:36:46;21.38;;;19.27;;
46505;SDS011;32220;49.808;9.968;2023-03-03T09:39:16;20.70;;;18.50;;
46505;SDS011;32220;49.808;9.968;2023-03-03T09:48:01;22.00;;;19.70;;
46505;SDS011;32220;49.808;9.968;2023-03-03T09:50:48;20.67;;;18.47;;
46505;SDS011;32220;49.808;9.968;2023-03-03T09:53:27;21.23;;;17.83;;
46505;SDS011;32220;49.808;9.968;2023-03-03T09:56:08;21.13;;;18.73;;
46505;SDS011;32220;49.808;9.968;2023-03-03T09:58:46;20.43;;;18.20;;
46505;SDS011;32220;49.808;9.968;2023-03-03T10:07:25;21.03;;;17.97;;
46505;SDS011;32220;49.808;9.968;2023-03-03T10:10:10;21.53;;;19.27;;
46505;SDS011;32220;49.808;9.968;2023-03-03T10:12:47;21.00;;;18.90;;
46505;SDS011;32220;49.808;9.968;2023-03-03T10:15:28;20.73;;;18.57;;
46505;SDS011;32220;49.808;9.968;2023-03-03T10:18:05;20.50;;;18.37;;
46505;SDS011;32220;49.808;9.968;2023-03-03T10:20:44;19.40;;;17.33;;
46505;SDS011;32220;49.808;9.968;2023-03-03T10:23:23;22.02;;;19.73;;
46505;SDS011;32220;49.808;9.968;2023-03-03T10:26:06;20.00;;;17.90;;
46505;SDS011;32220;49.808;9.968;2023-03-03T10:28:58;19.52;;;17.60;;
46505;SDS011;32220;49.808;9.968;2023-03-03T10:31:44;19.88;;;18.08;;
46505;SDS011;32220;49.808;9.968;2023-03-03T10:34:24;20.38;;;18.48;;
46505;SDS011;32220;49.808;9.968;2023-03-03T10:37:08;19.67;;;17.67;;
46505;SDS011;32220;49.808;9.968;2023-03-03T10:39:48;19.80;;;17.77;;
46505;SDS011;32220;49.808;9.968;2023-03-03T10:45:34;20.83;;;18.75;;
46505;SDS011;32220;49.808;9.968;2023-03-03T10:48:32;19.52;;;17.70;;
46505;SDS011;32220;49.808;9.968;2023-03-03T10:51:21;19.83;;;17.83;;
46505;SDS011;32220;49.808;9.968;2023-03-03T10:53:58;19.85;;;17.77;;
46505;SDS011;32220;49.808;9.968;2023-03-03T10:56:39;19.87;;;17.87;;
46505;SDS011;32220;49.808;9.968;2023-03-03T10:59:22;18.27;;;16.57;;
46505;SDS011;32220;49.808;9.968;2023-03-03T11:02:05;18.90;;;17.00;;
46505;SDS011;32220;49.808;9.968;2023-03-03T11:04:48;20.83;;;17.60;;
46505;SDS011;32220;49.808;9.968;2023-03-03T11:07:30;18.47;;;16.57;;
46505;SDS011;32220;49.808;9.968;2023-03-03T11:10:20;18.87;;;16.60;;
46505;SDS011;32220;49.808;9.968;2023-03-03T11:12:59;18.65;;;16.45;;
46505;SDS011;32220;49.808;9.968;2023-03-03T11:15:40;19.35;;;17.10;;
46505;SDS011;32220;49.808;9.968;2023-03-03T11:18:17;19.73;;;17.25;;
46505;SDS011;32220;49.808;9.968;2023-03-03T11:20:53;19.67;;;17.77;;
46505;SDS011;32220;49.808;9.968;2023-03-03T11:26:46;19.77;;;17.77;;
46505;SDS011;32220;49.808;9.968;2023-03-03T11:29:29;17.55;;;15.85;;
46505;SDS011;32220;49.808;9.968;2023-03-03T11:32:08;17.77;;;15.98;;
46505;SDS011;32220;49.808;9.968;2023-03-03T11:34:53;19.38;;;17.38;;
46505;SDS011;32220;49.808;9.968;2023-03-03T11:37:28;19.15;;;16.10;;
46505;SDS011;32220;49.808;9.968;2023-03-03T11:40:11;21.02;;;16.20;;
46505;SDS011;32220;49.808;9.968;2023-03-03T11:42:46;19.83;;;17.75;;
46505;SDS011;32220;49.808;9.968;2023-03-03T11:45:24;18.10;;;16.20;;
46505;SDS011;32220;49.808;9.968;2023-03-03T11:47:58;17.92;;;16.13;;
46505;SDS011;32220;49.808;9.968;2023-03-03T11:50:34;17.67;;;15.82;;
46505;SDS011;32220;49.808;9.968;2023-03-03T11:53:08;19.02;;;17.17;;
46505;SDS011;32220;49.808;9.968;2023-03-03T11:55:51;17.30;;;15.45;;
46505;SDS011;32220;49.808;9.968;2023-03-03T11:58:27;15.95;;;14.35;;
46505;SDS011;32220;49.808;9.968;2023-03-03T12:01:00;16.50;;;14.80;;
46505;SDS011;32220;49.808;9.968;2023-03-03T12:03:37;15.88;;;14.30;;
46505;SDS011;32220;49.808;9.968;2023-03-03T12:06:16;16.92;;;15.23;;
46505;SDS011;32220;49.808;9.968;2023-03-03T12:09:00;15.88;;;14.30;;
46505;SDS011;32220;49.808;9.968;2023-03-03T12:11:42;15.52;;;14.02;;
46505;SDS011;32220;49.808;9.968;2023-03-03T12:14:17;14.65;;;13.35;;
46505;SDS011;32220;49.808;9.968;2023-03-03T12:16:57;13.90;;;12.60;;
46505;SDS011;32220;49.808;9.968;2023-03-03T12:19:30;15.95;;;14.27;;
46505;SDS011;32220;49.808;9.968;2023-03-03T12:22:04;17.42;;;15.77;;
46505;SDS011;32220;49.808;9.968;2023-03-03T12:24:50;16.25;;;14.73;;
46505;SDS011;32220;49.808;9.968;2023-03-03T12:27:32;15.80;;;14.20;;
46505;SDS011;32220;49.808;9.968;2023-03-03T12:30:09;15.80;;;14.30;;
46505;SDS011;32220;49.808;9.968;2023-03-03T12:32:49;14.60;;;13.30;;
46505;SDS011;32220;49.808;9.968;2023-03-03T12:35:27;14.05;;;12.65;;
46505;SDS011;32220;49.808;9.968;2023-03-03T12:38:04;14.80;;;13.40;;
46505;SDS011;32220;49.808;9.968;2023-03-03T12:40:43;15.30;;;13.90;;
46505;SDS011;32220;49.808;9.968;2023-03-03T12:43:22;14.68;;;13.18;;
46505;SDS011;32220;49.808;9.968;2023-03-03T12:46:01;15.00;;;13.60;;
46505;SDS011;32220;49.808;9.968;2023-03-03T12:48:40;13.88;;;12.48;;
46505;SDS011;32220;49.808;9.968;2023-03-03T12:51:12;16.00;;;14.45;;
46505;SDS011;32220;49.808;9.968;2023-03-03T12:53:53;16.15;;;14.65;;
46505;SDS011;32220;49.808;9.968;2023-03-03T12:56:34;15.20;;;13.75;;
46505;SDS011;32220;49.808;9.968;2023-03-03T12:59:08;15.07;;;13.57;;
46505;SDS011;32220;49.808;9.968;2023-03-03T13:01:42;13.27;;;12.13;;
46505;SDS011;32220;49.808;9.968;2023-03-03T13:04:28;14.18;;;12.88;;
46505;SDS011;32220;49.808;9.968;2023-03-03T13:07:04;15.77;;;14.27;;
46505;SDS011;32220;49.808;9.968;2023-03-03T13:09:40;17.20;;;15.15;;
46505;SDS011;32220;49.808;9.968;2023-03-03T13:12:27;16.48;;;14.77;;
46505;SDS011;32220;49.808;9.968;2023-03-03T13:15:02;14.68;;;13.27;;
46505;SDS011;32220;49.808;9.968;2023-03-03T13:17:39;13.75;;;12.45;;
46505;SDS011;32220;49.808;9.968;2023-03-03T13:20:19;14.98;;;13.57;;
46505;SDS011;32220;49.808;9.968;2023-03-03T13:22:53;13.48;;;12.18;;
46505;SDS011;32220;49.808;9.968;2023-03-03T13:25:39;13.63;;;12.25;;
46505;SDS011;32220;49.808;9.968;2023-03-03T13:28:17;12.93;;;11.52;;
46505;SDS011;32220;49.808;9.968;2023-03-03T13:30:53;13.35;;;11.93;;
46505;SDS011;32220;49.808;9.968;2023-03-03T13:33:24;13.27;;;11.98;;
46505;SDS011;32220;49.808;9.968;2023-03-03T13:35:57;14.85;;;13.40;;
46505;SDS011;32220;49.808;9.968;2023-03-03T13:38:28;12.93;;;11.73;;
46505;SDS011;32220;49.808;9.968;2023-03-03T13:41:01;18.20;;;12.32;;
46505;SDS011;32220;49.808;9.968;2023-03-03T13:43:34;13.68;;;12.15;;
46505;SDS011;32220;49.808;9.968;2023-03-03T13:46:11;12.67;;;11.47;;
46505;SDS011;32220;49.808;9.968;2023-03-03T13:48:54;12.53;;;11.33;;
46505;SDS011;32220;49.808;9.968;2023-03-03T13:51:38;12.40;;;11.20;;
46505;SDS011;32220;49.808;9.968;2023-03-03T13:54:13;11.70;;;10.07;;
46505;SDS011;32220;49.808;9.968;2023-03-03T13:56:52;11.87;;;10.63;;
46505;SDS011;32220;49.808;9.968;2023-03-03T13:59:39;11.20;;;9.93;;
46505;SDS011;32220;49.808;9.968;2023-03-03T14:02:19;10.87;;;9.77;;
46505;SDS011;32220;49.808;9.968;2023-03-03T14:05:10;10.70;;;9.67;;
46505;SDS011;32220;49.808;9.968;2023-03-03T14:07:45;10.37;;;9.27;;
46505;SDS011;32220;49.808;9.968;2023-03-03T14:10:20;11.37;;;9.23;;
46505;SDS011;32220;49.808;9.968;2023-03-03T14:12:55;10.30;;;9.37;;
46505;SDS011;32220;49.808;9.968;2023-03-03T14:15:29;10.17;;;9.17;;
46505;SDS011;32220;49.808;9.968;2023-03-03T14:18:05;10.27;;;9.23;;
46505;SDS011;32220;49.808;9.968;2023-03-03T14:20:45;10.00;;;9.00;;
46505;SDS011;32220;49.808;9.968;2023-03-03T14:23:18;8.60;;;7.63;;
46505;SDS011;32220;49.808;9.968;2023-03-03T14:25:50;10.30;;;8.23;;
46505;SDS011;32220;49.808;9.968;2023-03-03T14:28:36;10.27;;;9.27;;
46505;SDS011;32220;49.808;9.968;2023-03-03T14:31:13;13.70;;;9.80;;
46505;SDS011;32220;49.808;9.968;2023-03-03T14:33:44;10.07;;;8.77;;
46505;SDS011;32220;49.808;9.968;2023-03-03T14:36:25;9.83;;;8.53;;
46505;SDS011;32220;49.808;9.968;2023-03-03T14:38:56;9.87;;;8.87;;
46505;SDS011;32220;49.808;9.968;2023-03-03T14:41:38;11.03;;;9.00;;
46505;SDS011;32220;49.808;9.968;2023-03-03T14:44:27;10.77;;;8.87;;
46505;SDS011;32220;49.808;9.968;2023-03-03T14:47:04;9.87;;;8.87;;
46505;SDS011;32220;49.808;9.968;2023-03-03T14:49:42;10.13;;;9.03;;
46505;SDS011;32220;49.808;9.968;2023-03-03T14:52:17;10.33;;;9.10;;
46505;SDS011;32220;49.808;9.968;2023-03-03T14:54:49;9.83;;;8.67;;
46505;SDS011;32220;49.808;9.968;2023-03-03T14:57:18;11.10;;;8.17;;
46505;SDS011;32220;49.808;9.968;2023-03-03T14:59:57;11.73;;;8.87;;
46505;SDS011;32220;49.808;9.968;2023-03-03T15:02:34;13.47;;;10.00;;
46505;SDS011;32220;49.808;9.968;2023-03-03T15:05:11;11.73;;;9.50;;
46505;SDS011;32220;49.808;9.968;2023-03-03T15:07:45;10.27;;;8.07;;
46505;SDS011;32220;49.808;9.968;2023-03-03T15:10:27;10.13;;;8.00;;
46505;SDS011;32220;49.808;9.968;2023-03-03T15:12:56;11.93;;;9.93;;
46505;SDS011;32220;49.808;9.968;2023-03-03T15:15:24;12.17;;;10.53;;
46505;SDS011;32220;49.808;9.968;2023-03-03T15:17:57;12.53;;;10.03;;
46505;SDS011;32220;49.808;9.968;2023-03-03T15:20:30;12.20;;;9.67;;
46505;SDS011;32220;49.808;9.968;2023-03-03T15:23:18;11.23;;;9.13;;
46505;SDS011;32220;49.808;9.968;2023-03-03T15:26:04;10.13;;;8.30;;
46505;SDS011;32220;49.808;9.968;2023-03-03T15:28:43;11.83;;;9.37;;
46505;SDS011;32220;49.808;9.968;2023-03-03T15:31:27;15.13;;;10.23;;
46505;SDS011;32220;49.808;9.968;2023-03-03T15:34:18;12.60;;;9.50;;
46505;SDS011;32220;49.808;9.968;2023-03-03T15:36:55;12.70;;;9.13;;